Time,TemperatureF,DewpointF,PressureIn,WindDirection,WindDirectionDegrees,WindSpeedMPH,WindSpeedGustMPH,Humidity,HourlyPrecipIn,Conditions,Clouds,dailyrainin,SoftwareType,DateUTC
2013-04-17 00:01:00,26.8,25.5,29.97,North,0,1.3,1.3,95,0.00,,---,0.00,VWS V14.01,2013-04-17 06:01:00,
2013-04-17 00:16:00,26.8,25.5,29.97,North,0,0.0,1.3,95,0.00,,---,0.00,VWS V14.01,2013-04-17 06:16:00,
2013-04-17 00:31:00,26.8,25.5,29.97,North,0,0.0,0.0,95,0.00,,---,0.00,VWS V14.01,2013-04-17 06:31:00,
2013-04-17 00:46:00,26.6,25.6,29.94,North,0,0.0,0.0,96,0.00,,---,0.00,VWS V14.01,2013-04-17 06:46:00,
2013-04-17 01:01:00,26.6,25.6,29.97,North,0,0.9,0.9,96,0.00,,---,0.00,VWS V14.01,2013-04-17 07:01:00,
2013-04-17 01:16:00,26.4,25.4,29.94,North,0,2.0,2.0,96,0.00,,---,0.00,VWS V14.01,2013-04-17 07:16:00,
2013-04-17 01:31:00,26.4,25.7,29.94,North,0,1.6,2.0,97,0.00,,---,0.00,VWS V14.01,2013-04-17 07:31:00,
2013-04-17 01:46:00,26.2,25.5,29.94,North,0,0.0,1.6,97,0.00,,---,0.00,VWS V14.01,2013-04-17 07:46:00,
2013-04-17 02:01:00,26.2,25.5,29.94,North,0,1.6,1.6,97,0.00,,---,0.00,VWS V14.01,2013-04-17 08:01:00,
2013-04-17 02:16:00,26.2,25.5,29.94,North,0,2.2,2.2,97,0.00,,---,0.00,VWS V14.01,2013-04-17 08:16:00,
2013-04-17 02:31:00,26.2,25.5,29.94,North,0,1.6,2.2,97,0.00,,---,0.00,VWS V14.01,2013-04-17 08:31:00,
2013-04-17 02:46:00,26.1,25.6,29.91,North,0,2.2,2.2,98,0.00,,---,0.00,VWS V14.01,2013-04-17 08:46:00,
2013-04-17 03:01:00,26.1,25.6,29.94,North,0,0.0,2.2,98,0.00,,---,0.00,VWS V14.01,2013-04-17 09:01:00,
2013-04-17 03:16:00,26.1,25.8,29.94,North,0,0.0,0.0,99,0.00,,---,0.00,VWS V14.01,2013-04-17 09:16:00,
2013-04-17 03:31:00,25.7,25.2,29.94,North,0,0.0,0.0,98,0.00,,---,0.00,VWS V14.01,2013-04-17 09:31:00,
2013-04-17 03:46:00,25.5,24.8,29.94,North,0,0.0,0.0,97,0.00,,---,0.00,VWS V14.01,2013-04-17 09:46:00,
2013-04-17 04:01:00,25.3,24.6,29.94,North,0,0.0,0.0,97,0.00,,---,0.00,VWS V14.01,2013-04-17 10:01:00,
2013-04-17 04:16:00,25.3,24.6,29.91,North,0,0.0,0.0,97,0.00,,---,0.00,VWS V14.01,2013-04-17 10:16:00,
2013-04-17 04:31:00,25.3,24.6,29.91,North,0,0.0,0.0,97,0.00,,---,0.00,VWS V14.01,2013-04-17 10:31:00,
2013-04-17 04:46:00,25.2,24.2,29.91,North,0,0.0,0.0,96,0.00,,---,0.00,VWS V14.01,2013-04-17 10:46:00,
2013-04-17 05:01:00,25.0,24.0,29.91,North,0,0.0,0.0,96,0.00,,---,0.00,VWS V14.01,2013-04-17 11:01:00,
2013-04-17 05:16:00,24.8,24.1,29.91,North,0,0.0,0.0,97,0.00,,---,0.00,VWS V14.01,2013-04-17 11:16:00,
2013-04-17 05:31:00,24.8,24.1,29.91,North,0,0.0,0.0,97,0.00,,---,0.00,VWS V14.01,2013-04-17 11:31:00,
2013-04-17 05:46:00,24.8,24.1,29.91,North,0,0.0,0.0,97,0.00,,---,0.00,VWS V14.01,2013-04-17 11:46:00,
2013-04-17 06:01:00,24.6,23.9,29.91,North,0,1.3,1.3,97,0.00,,---,0.00,VWS V14.01,2013-04-17 12:01:00,
2013-04-17 06:16:00,24.6,23.9,29.91,North,0,0.0,1.3,97,0.00,,---,0.00,VWS V14.01,2013-04-17 12:16:00,
2013-04-17 06:31:00,25.0,24.2,29.91,North,0,0.0,0.0,97,0.00,,---,0.00,VWS V14.01,2013-04-17 12:31:00,
2013-04-17 06:46:00,25.3,24.6,29.91,North,0,0.0,0.0,97,0.00,,---,0.00,VWS V14.01,2013-04-17 12:46:00,
2013-04-17 07:01:00,26.1,25.1,29.91,North,0,0.0,0.0,96,0.00,,---,0.00,VWS V14.01,2013-04-17 13:01:00,
2013-04-17 07:16:00,26.2,25.3,29.91,North,0,0.0,0.0,96,0.00,,---,0.00,VWS V14.01,2013-04-17 13:16:00,
2013-04-17 07:31:00,27.1,25.9,29.91,North,0,0.0,0.0,95,0.00,,---,0.00,VWS V14.01,2013-04-17 13:31:00,
2013-04-17 07:46:00,28.2,26.5,29.88,North,0,0.0,0.0,93,0.00,,---,0.00,VWS V14.01,2013-04-17 13:46:00,
2013-04-17 08:01:00,30.0,27.5,29.91,North,0,0.0,0.0,90,0.00,,---,0.00,VWS V14.01,2013-04-17 14:01:00,
2013-04-17 08:16:00,29.8,25.9,29.91,North,0,0.0,0.0,85,0.00,,---,0.00,VWS V14.01,2013-04-17 14:16:00,
2013-04-17 08:31:00,33.1,28.2,29.91,North,0,0.0,0.0,82,0.00,,---,0.00,VWS V14.01,2013-04-17 14:31:00,
2013-04-17 08:46:00,35.4,28.0,29.91,North,0,0.0,0.0,74,0.00,,---,0.00,VWS V14.01,2013-04-17 14:46:00,
2013-04-17 09:01:00,36.1,25.9,29.91,North,0,0.0,0.0,66,0.00,,---,0.00,VWS V14.01,2013-04-17 15:01:00,
2013-04-17 09:16:00,38.1,27.4,29.91,North,0,0.0,0.0,65,0.00,,---,0.00,VWS V14.01,2013-04-17 15:16:00,
2013-04-17 09:31:00,38.1,25.1,29.91,North,0,0.0,0.0,59,0.00,,---,0.00,VWS V14.01,2013-04-17 15:31:00,
2013-04-17 09:46:00,41.5,27.9,29.91,North,0,0.0,0.0,58,0.00,,---,0.00,VWS V14.01,2013-04-17 15:46:00,
2013-04-17 10:01:00,42.4,27.4,29.88,NNE,22,2.9,2.9,55,0.00,,---,0.00,VWS V14.01,2013-04-17 16:01:00,
2013-04-17 10:16:00,43.5,27.5,29.88,NNW,338,2.5,2.9,53,0.00,,---,0.00,VWS V14.01,2013-04-17 16:16:00,
2013-04-17 10:31:00,45.0,28.4,29.91,NNW,338,2.0,2.5,52,0.00,,---,0.00,VWS V14.01,2013-04-17 16:31:00,
2013-04-17 10:46:00,45.5,28.4,29.91,WNW,292,2.9,2.9,51,0.00,,---,0.00,VWS V14.01,2013-04-17 16:46:00,
2013-04-17 11:01:00,44.8,26.8,29.91,NW,315,5.6,5.6,49,0.00,,---,0.00,VWS V14.01,2013-04-17 17:01:00,
2013-04-17 11:16:00,43.2,25.8,29.91,NE,45,3.4,5.6,50,0.00,,---,0.00,VWS V14.01,2013-04-17 17:16:00,
2013-04-17 11:31:00,42.1,25.3,29.91,NNW,338,4.0,4.0,51,0.00,,---,0.00,VWS V14.01,2013-04-17 17:31:00,
2013-04-17 11:46:00,40.8,24.6,29.91,NW,315,2.2,4.0,52,0.00,,---,0.00,VWS V14.01,2013-04-17 17:46:00,
2013-04-17 12:01:00,42.6,25.8,29.91,NNE,22,2.5,2.5,51,0.00,,---,0.00,VWS V14.01,2013-04-17 18:01:00,
2013-04-17 12:16:00,41.0,24.7,29.91,NNW,338,4.0,4.0,52,0.00,,---,0.00,VWS V14.01,2013-04-17 18:16:00,
2013-04-17 12:31:00,40.5,25.1,29.88,NNE,22,3.8,4.0,54,0.00,,---,0.00,VWS V14.01,2013-04-17 18:31:00,
2013-04-17 12:46:00,39.7,24.0,29.91,North,0,5.4,5.4,53,0.00,,---,0.00,VWS V14.01,2013-04-17 18:46:00,
2013-04-17 13:01:00,40.3,25.0,29.91,NW,315,2.5,5.4,54,0.00,,---,0.00,VWS V14.01,2013-04-17 19:01:00,
2013-04-17 13:16:00,38.1,23.0,29.88,NE,45,2.9,2.9,54,0.00,,---,0.00,VWS V14.01,2013-04-17 19:16:00,
2013-04-17 13:31:00,36.9,23.1,29.91,NNE,22,5.4,5.4,57,0.00,,---,0.00,VWS V14.01,2013-04-17 19:31:00,
2013-04-17 13:46:00,35.8,22.9,29.91,NNW,338,5.4,5.4,59,0.00,,---,0.00,VWS V14.01,2013-04-17 19:46:00,
2013-04-17 14:01:00,35.8,23.7,29.91,NNW,338,7.4,7.4,61,0.00,,---,0.00,VWS V14.01,2013-04-17 20:01:00,
2013-04-17 14:16:00,36.3,23.8,29.91,North,0,5.8,7.4,60,0.00,,---,0.00,VWS V14.01,2013-04-17 20:16:00,
2013-04-17 14:31:00,37.9,24.5,29.91,North,0,7.8,7.8,58,0.00,,---,0.00,VWS V14.01,2013-04-17 20:31:00,
2013-04-17 14:46:00,37.9,24.1,29.91,WNW,292,5.6,7.8,57,0.00,,---,0.00,VWS V14.01,2013-04-17 20:46:00,
2013-04-17 15:01:00,38.5,24.6,29.91,NNW,338,3.1,5.6,57,0.00,,---,0.00,VWS V14.01,2013-04-17 21:01:00,
2013-04-17 15:16:00,37.9,24.1,29.91,NE,45,4.3,4.3,57,0.00,,---,0.00,VWS V14.01,2013-04-17 21:16:00,
2013-04-17 15:31:00,37.6,23.7,29.91,NNW,338,4.0,4.3,57,0.00,,---,0.00,VWS V14.01,2013-04-17 21:31:00,
2013-04-17 15:46:00,36.3,23.4,29.88,ESE,112,2.9,4.0,59,0.00,,---,0.00,VWS V14.01,2013-04-17 21:46:00,
2013-04-17 16:01:00,36.1,24.4,29.91,ESE,112,2.9,2.9,62,0.00,,---,0.00,VWS V14.01,2013-04-17 22:01:00,
2013-04-17 16:16:00,33.4,23.0,29.91,ESE,112,2.9,2.9,65,0.00,,---,0.00,VWS V14.01,2013-04-17 22:16:00,
2013-04-17 16:31:00,33.3,23.5,29.91,ESE,112,2.9,2.9,67,0.00,,---,0.00,VWS V14.01,2013-04-17 22:31:00,
2013-04-17 16:46:00,32.7,23.7,29.88,ESE,112,2.9,2.9,69,0.00,,---,0.00,VWS V14.01,2013-04-17 22:46:00,
2013-04-17 17:01:00,32.2,23.9,29.88,ESE,112,2.9,2.9,71,0.00,,---,0.00,VWS V14.01,2013-04-17 23:01:00,
2013-04-17 17:16:00,32.2,24.5,29.88,ESE,112,2.9,2.9,73,0.00,,---,0.00,VWS V14.01,2013-04-17 23:16:00,
2013-04-17 17:31:00,31.1,24.1,29.91,ESE,112,2.9,2.9,75,0.00,,---,0.00,VWS V14.01,2013-04-17 23:31:00,
2013-04-17 17:46:00,30.2,23.6,29.91,ESE,112,2.9,2.9,76,0.05,,---,0.05,VWS V14.01,2013-04-17 23:46:00,
2013-04-17 18:01:00,30.6,24.2,29.91,ESE,112,2.9,2.9,77,0.05,,---,0.05,VWS V14.01,2013-04-18 00:01:00,
2013-04-17 18:16:00,29.8,24.7,29.91,ESE,112,2.9,2.9,81,0.05,,---,0.05,VWS V14.01,2013-04-18 00:16:00,
2013-04-17 18:31:00,28.6,24.4,29.88,ESE,112,2.9,2.9,84,0.05,,---,0.05,VWS V14.01,2013-04-18 00:31:00,
2013-04-17 18:46:00,28.4,25.3,29.91,ESE,112,2.9,2.9,88,0.05,,---,0.05,VWS V14.01,2013-04-18 00:46:00,
2013-04-17 19:01:00,28.0,25.2,29.91,ESE,112,2.9,2.9,89,0.00,,---,0.05,VWS V14.01,2013-04-18 01:01:00,
2013-04-17 19:16:00,27.7,25.4,29.91,ESE,112,2.9,2.9,91,0.00,,---,0.05,VWS V14.01,2013-04-18 01:16:00,
2013-04-17 19:31:00,27.3,25.8,29.91,ESE,112,2.9,2.9,94,0.00,,---,0.05,VWS V14.01,2013-04-18 01:31:00,
2013-04-17 19:46:00,27.1,25.6,29.91,ESE,112,2.9,2.9,94,0.00,,---,0.05,VWS V14.01,2013-04-18 01:46:00,
2013-04-17 20:01:00,26.8,24.8,29.91,ESE,112,2.9,2.9,92,0.00,,---,0.05,VWS V14.01,2013-04-18 02:01:00,
2013-04-17 20:16:00,26.4,23.1,29.88,ESE,112,2.9,2.9,87,0.00,,---,0.05,VWS V14.01,2013-04-18 02:16:00,
2013-04-17 20:31:00,26.6,23.0,29.91,ESE,112,2.9,2.9,86,0.00,,---,0.05,VWS V14.01,2013-04-18 02:31:00,
2013-04-17 20:46:00,26.4,23.1,29.91,ESE,112,2.9,2.9,87,0.00,,---,0.05,VWS V14.01,2013-04-18 02:46:00,
2013-04-17 21:01:00,26.4,23.4,29.88,ESE,112,2.9,2.9,88,0.00,,---,0.05,VWS V14.01,2013-04-18 03:01:00,
2013-04-17 21:16:00,26.2,23.5,29.88,ESE,112,2.9,2.9,89,0.00,,---,0.05,VWS V14.01,2013-04-18 03:16:00,
2013-04-17 21:31:00,26.4,23.6,29.91,ESE,112,2.9,2.9,89,0.00,,---,0.05,VWS V14.01,2013-04-18 03:31:00,
2013-04-17 21:46:00,26.4,23.6,29.91,ESE,112,2.9,2.9,89,0.00,,---,0.05,VWS V14.01,2013-04-18 03:46:00,
2013-04-17 22:01:00,26.1,23.3,29.91,ESE,112,2.9,2.9,89,0.00,,---,0.05,VWS V14.01,2013-04-18 04:01:00,
2013-04-17 22:16:00,26.1,23.5,29.91,ESE,112,2.9,2.9,90,0.00,,---,0.05,VWS V14.01,2013-04-18 04:16:00,
2013-04-17 22:31:00,26.2,23.7,29.91,ESE,112,2.9,2.9,90,0.00,,---,0.05,VWS V14.01,2013-04-18 04:31:00,
2013-04-17 22:46:00,25.7,23.2,29.91,ESE,112,2.9,2.9,90,0.00,,---,0.05,VWS V14.01,2013-04-18 04:46:00,
2013-04-17 23:01:00,25.9,22.5,29.91,ESE,112,2.9,2.9,87,0.00,,---,0.05,VWS V14.01,2013-04-18 05:01:00,
2013-04-17 23:16:00,26.1,22.5,29.91,ESE,112,2.9,2.9,86,0.00,,---,0.05,VWS V14.01,2013-04-18 05:16:00,
2013-04-17 23:31:00,25.7,23.2,29.88,ESE,112,2.9,2.9,90,0.00,,---,0.05,VWS V14.01,2013-04-18 05:31:00,
2013-04-17 23:46:00,25.5,24.0,29.91,ESE,112,2.9,2.9,94,0.00,,---,0.05,VWS V14.01,2013-04-18 05:46:00,